sensor_id;sensor_type;location;lat;lon;timestamp;temperature;humidity
10306;DHT22;5198;52.382;9.020;2024-01-30T04:47:05;5.10;99.90
10306;DHT22;5198;52.382;9.020;2024-01-30T04:51:10;5.10;99.90
10306;DHT22;5198;52.382;9.020;2024-01-30T04:55:13;5.10;99.90
10306;DHT22;5198;52.382;9.020;2024-01-30T04:59:16;5.20;99.90
10306;DHT22;5198;52.382;9.020;2024-01-30T05:03:20;5.20;99.90
10306;DHT22;5198;52.382;9.020;2024-01-30T05:07:24;5.20;99.90
10306;DHT22;5198;52.382;9.020;2024-01-30T05:11:27;5.30;99.90
10306;DHT22;5198;52.382;9.020;2024-01-30T05:15:30;5.30;99.90
10306;DHT22;5198;52.382;9.020;2024-01-30T05:19:34;5.30;99.90
10306;DHT22;5198;52.382;9.020;2024-01-30T05:23:37;5.30;99.90
10306;DHT22;5198;52.382;9.020;2024-01-30T05:27:40;5.30;99.90
10306;DHT22;5198;52.382;9.020;2024-01-30T05:31:43;5.30;99.90
10306;DHT22;5198;52.382;9.020;2024-01-30T05:35:47;5.30;99.90
10306;DHT22;5198;52.382;9.020;2024-01-30T05:39:51;5.30;99.90
10306;DHT22;5198;52.382;9.020;2024-01-30T05:43:53;5.30;99.90
10306;DHT22;5198;52.382;9.020;2024-01-30T05:47:56;5.30;99.90
10306;DHT22;5198;52.382;9.020;2024-01-30T05:52:01;5.30;99.90
10306;DHT22;5198;52.382;9.020;2024-01-30T05:56:05;5.20;99.90
10306;DHT22;5198;52.382;9.020;2024-01-30T06:00:08;5.20;99.90
10306;DHT22;5198;52.382;9.020;2024-01-30T06:04:11;5.30;99.90
10306;DHT22;5198;52.382;9.020;2024-01-30T06:08:15;5.30;99.90
10306;DHT22;5198;52.382;9.020;2024-01-30T06:12:18;5.30;99.90
10306;DHT22;5198;52.382;9.020;2024-01-30T06:16:21;5.40;99.90
10306;DHT22;5198;52.382;9.020;2024-01-30T06:20:24;5.40;99.90
10306;DHT22;5198;52.382;9.020;2024-01-30T06:24:29;5.50;99.90
10306;DHT22;5198;52.382;9.020;2024-01-30T06:28:32;5.50;99.90
10306;DHT22;5198;52.382;9.020;2024-01-30T06:32:35;5.50;99.90
10306;DHT22;5198;52.382;9.020;2024-01-30T06:36:38;5.60;99.90
10306;DHT22;5198;52.382;9.020;2024-01-30T06:40:42;5.60;99.90
10306;DHT22;5198;52.382;9.020;2024-01-30T06:44:45;5.60;99.90
10306;DHT22;5198;52.382;9.020;2024-01-30T06:48:48;5.60;99.90
10306;DHT22;5198;52.382;9.020;2024-01-30T06:52:51;5.60;99.90
10306;DHT22;5198;52.382;9.020;2024-01-30T06:56:56;5.70;99.90
10306;DHT22;5198;52.382;9.020;2024-01-30T07:00:59;5.70;99.90
10306;DHT22;5198;52.382;9.020;2024-01-30T07:05:02;5.70;99.90
10306;DHT22;5198;52.382;9.020;2024-01-30T07:09:05;5.70;99.90
10306;DHT22;5198;52.382;9.020;2024-01-30T07:13:10;5.70;99.90
10306;DHT22;5198;52.382;9.020;2024-01-30T07:17:13;5.70;99.90
10306;DHT22;5198;52.382;9.020;2024-01-30T07:21:15;5.70;99.90
10306;DHT22;5198;52.382;9.020;2024-01-30T07:25:19;5.70;99.90
10306;DHT22;5198;52.382;9.020;2024-01-30T07:29:24;5.80;99.90
10306;DHT22;5198;52.382;9.020;2024-01-30T07:33:27;5.70;99.90
10306;DHT22;5198;52.382;9.020;2024-01-30T07:37:30;5.80;99.90
10306;DHT22;5198;52.382;9.020;2024-01-30T07:41:33;5.80;99.90
10306;DHT22;5198;52.382;9.020;2024-01-30T07:45:38;5.80;99.90
10306;DHT22;5198;52.382;9.020;2024-01-30T07:49:40;5.90;99.90
10306;DHT22;5198;52.382;9.020;2024-01-30T07:53:43;5.90;99.90
10306;DHT22;5198;52.382;9.020;2024-01-30T07:57:46;6.00;99.90
10306;DHT22;5198;52.382;9.020;2024-01-30T08:01:54;6.00;99.90
10306;DHT22;5198;52.382;9.020;2024-01-30T08:05:57;6.00;99.90
10306;DHT22;5198;52.382;9.020;2024-01-30T08:10:00;6.10;99.90
10306;DHT22;5198;52.382;9.020;2024-01-30T08:14:03;6.20;99.90
10306;DHT22;5198;52.382;9.020;2024-01-30T15:15:29;11.70;99.90
10306;DHT22;5198;52.382;9.020;2024-01-30T15:19:32;11.70;99.90
10306;DHT22;5198;52.382;9.020;2024-01-30T15:23:35;11.80;99.90
10306;DHT22;5198;52.382;9.020;2024-01-30T15:27:38;11.80;99.90
10306;DHT22;5198;52.382;9.020;2024-01-30T15:31:42;11.90;99.90
10306;DHT22;5198;52.382;9.020;2024-01-30T15:35:45;11.90;99.90
10306;DHT22;5198;52.382;9.020;2024-01-30T15:39:48;12.00;99.90
10306;DHT22;5198;52.382;9.020;2024-01-30T15:43:51;12.00;99.90
10306;DHT22;5198;52.382;9.020;2024-01-30T15:47:55;12.00;99.90
10306;DHT22;5198;52.382;9.020;2024-01-30T15:52:00;12.10;99.90
10306;DHT22;5198;52.382;9.020;2024-01-30T15:56:03;12.10;99.90
10306;DHT22;5198;52.382;9.020;2024-01-30T16:00:07;12.00;99.90
10306;DHT22;5198;52.382;9.020;2024-01-30T16:04:11;12.00;99.90
10306;DHT22;5198;52.382;9.020;2024-01-30T16:08:14;12.00;99.90
10306;DHT22;5198;52.382;9.020;2024-01-30T16:12:17;12.00;99.90
10306;DHT22;5198;52.382;9.020;2024-01-30T16:16:20;12.00;99.90
10306;DHT22;5198;52.382;9.020;2024-01-30T16:20:24;12.00;99.90
10306;DHT22;5198;52.382;9.020;2024-01-30T16:24:27;12.00;99.90
10306;DHT22;5198;52.382;9.020;2024-01-30T16:28:30;12.00;99.90
10306;DHT22;5198;52.382;9.020;2024-01-30T16:32:35;11.90;99.90
10306;DHT22;5198;52.382;9.020;2024-01-30T16:36:39;11.90;99.90
10306;DHT22;5198;52.382;9.020;2024-01-30T16:40:45;11.80;99.90
10306;DHT22;5198;52.382;9.020;2024-01-30T16:44:48;11.80;99.90
10306;DHT22;5198;52.382;9.020;2024-01-30T16:48:51;11.70;99.90
10306;DHT22;5198;52.382;9.020;2024-01-30T16:52:55;11.70;99.90
10306;DHT22;5198;52.382;9.020;2024-01-30T16:56:58;11.60;99.90
10306;DHT22;5198;52.382;9.020;2024-01-30T17:01:01;11.60;99.90
10306;DHT22;5198;52.382;9.020;2024-01-30T17:05:04;11.50;99.90
10306;DHT22;5198;52.382;9.020;2024-01-30T17:09:25;11.50;99.90
10306;DHT22;5198;52.382;9.020;2024-01-30T17:13:28;11.50;99.90
10306;DHT22;5198;52.382;9.020;2024-01-30T17:17:31;11.50;99.90
10306;DHT22;5198;52.382;9.020;2024-01-30T17:21:34;11.50;99.90
10306;DHT22;5198;52.382;9.020;2024-01-30T17:25:40;11.50;99.90
10306;DHT22;5198;52.382;9.020;2024-01-30T17:29:43;11.50;99.90
10306;DHT22;5198;52.382;9.020;2024-01-30T17:33:46;11.50;99.90
10306;DHT22;5198;52.382;9.020;2024-01-30T17:37:50;11.50;99.90
10306;DHT22;5198;52.382;9.020;2024-01-30T17:41:54;11.50;99.90
10306;DHT22;5198;52.382;9.020;2024-01-30T17:45:57;11.50;99.90
10306;DHT22;5198;52.382;9.020;2024-01-30T17:50:01;11.40;99.90
10306;DHT22;5198;52.382;9.020;2024-01-30T17:54:04;11.30;99.90
10306;DHT22;5198;52.382;9.020;2024-01-30T17:58:08;11.30;99.90
10306;DHT22;5198;52.382;9.020;2024-01-30T18:02:12;11.20;99.90
10306;DHT22;5198;52.382;9.020;2024-01-30T18:06:17;11.10;99.90
10306;DHT22;5198;52.382;9.020;2024-01-30T18:10:20;11.00;99.90
10306;DHT22;5198;52.382;9.020;2024-01-30T18:14:24;11.00;99.90
10306;DHT22;5198;52.382;9.020;2024-01-30T18:18:29;10.90;99.90
10306;DHT22;5198;52.382;9.020;2024-01-30T18:22:33;10.80;99.90
10306;DHT22;5198;52.382;9.020;2024-01-30T18:26:36;10.70;99.90
10306;DHT22;5198;52.382;9.020;2024-01-30T18:30:41;10.60;99.90
10306;DHT22;5198;52.382;9.020;2024-01-30T18:34:44;10.50;99.90
10306;DHT22;5198;52.382;9.020;2024-01-30T18:38:48;10.50;99.90
10306;DHT22;5198;52.382;9.020;2024-01-30T18:46:58;10.40;99.90
10306;DHT22;5198;52.382;9.020;2024-01-30T18:51:01;10.30;99.90
10306;DHT22;5198;52.382;9.020;2024-01-30T18:55:05;10.20;99.90
10306;DHT22;5198;52.382;9.020;2024-01-30T18:59:08;10.10;99.90
10306;DHT22;5198;52.382;9.020;2024-01-30T19:03:14;10.10;99.90
10306;DHT22;5198;52.382;9.020;2024-01-30T19:07:19;10.00;99.90
10306;DHT22;5198;52.382;9.020;2024-01-30T19:11:23;10.00;99.90
10306;DHT22;5198;52.382;9.020;2024-01-30T19:15:26;9.90;99.90
10306;DHT22;5198;52.382;9.020;2024-01-30T19:19:31;9.90;99.90
10306;DHT22;5198;52.382;9.020;2024-01-30T19:23:34;9.90;99.90
10306;DHT22;5198;52.382;9.020;2024-01-30T19:27:37;9.90;99.90
10306;DHT22;5198;52.382;9.020;2024-01-30T19:31:40;9.90;99.90
10306;DHT22;5198;52.382;9.020;2024-01-30T19:35:45;9.90;99.90
10306;DHT22;5198;52.382;9.020;2024-01-30T19:39:48;9.90;99.90
10306;DHT22;5198;52.382;9.020;2024-01-30T19:43:51;9.90;99.90
10306;DHT22;5198;52.382;9.020;2024-01-30T19:47:54;9.80;99.90
10306;DHT22;5198;52.382;9.020;2024-01-30T19:51:58;9.80;99.90
10306;DHT22;5198;52.382;9.020;2024-01-30T19:56:05;9.80;99.90
10306;DHT22;5198;52.382;9.020;2024-01-30T20:00:08;9.70;99.90
10306;DHT22;5198;52.382;9.020;2024-01-30T20:04:14;9.80;99.90
10306;DHT22;5198;52.382;9.020;2024-01-30T20:08:19;9.70;99.90
10306;DHT22;5198;52.382;9.020;2024-01-30T20:12:22;9.70;99.90
10306;DHT22;5198;52.382;9.020;2024-01-30T20:16:25;9.70;99.90
10306;DHT22;5198;52.382;9.020;2024-01-30T20:20:37;9.70;99.90
10306;DHT22;5198;52.382;9.020;2024-01-30T20:24:43;9.70;99.90
10306;DHT22;5198;52.382;9.020;2024-01-30T20:28:53;9.70;99.90
10306;DHT22;5198;52.382;9.020;2024-01-30T20:32:56;9.70;99.90
10306;DHT22;5198;52.382;9.020;2024-01-30T20:37:01;9.70;99.90
10306;DHT22;5198;52.382;9.020;2024-01-30T20:41:05;9.70;99.90
10306;DHT22;5198;52.382;9.020;2024-01-30T20:45:10;9.70;99.90
10306;DHT22;5198;52.382;9.020;2024-01-30T20:49:13;9.70;99.90
10306;DHT22;5198;52.382;9.020;2024-01-30T20:53:17;9.70;99.90
10306;DHT22;5198;52.382;9.020;2024-01-30T20:57:22;9.60;99.90
10306;DHT22;5198;52.382;9.020;2024-01-30T21:01:25;9.60;99.90
10306;DHT22;5198;52.382;9.020;2024-01-30T21:05:28;9.60;99.90
10306;DHT22;5198;52.382;9.020;2024-01-30T21:09:31;9.50;99.90
10306;DHT22;5198;52.382;9.020;2024-01-30T21:13:35;9.50;99.90
10306;DHT22;5198;52.382;9.020;2024-01-30T21:17:38;9.50;99.90
10306;DHT22;5198;52.382;9.020;2024-01-30T21:21:41;9.40;99.90
10306;DHT22;5198;52.382;9.020;2024-01-30T21:25:44;9.40;99.90
10306;DHT22;5198;52.382;9.020;2024-01-30T21:29:48;9.40;99.90
10306;DHT22;5198;52.382;9.020;2024-01-30T21:33:51;9.30;99.90
10306;DHT22;5198;52.382;9.020;2024-01-30T21:37:55;9.30;99.90
10306;DHT22;5198;52.382;9.020;2024-01-30T21:41:58;9.30;99.90
10306;DHT22;5198;52.382;9.020;2024-01-30T21:46:02;9.30;99.90
10306;DHT22;5198;52.382;9.020;2024-01-30T21:50:09;9.20;99.90
10306;DHT22;5198;52.382;9.020;2024-01-30T21:54:12;9.20;99.90
10306;DHT22;5198;52.382;9.020;2024-01-30T21:58:15;9.20;99.90
10306;DHT22;5198;52.382;9.020;2024-01-30T22:02:19;9.10;99.90
10306;DHT22;5198;52.382;9.020;2024-01-30T22:06:22;9.00;99.90
10306;DHT22;5198;52.382;9.020;2024-01-30T22:10:25;8.90;99.90
10306;DHT22;5198;52.382;9.020;2024-01-30T22:14:28;8.90;99.90
10306;DHT22;5198;52.382;9.020;2024-01-30T22:18:37;8.80;99.90
10306;DHT22;5198;52.382;9.020;2024-01-30T22:22:43;8.80;99.90
10306;DHT22;5198;52.382;9.020;2024-01-30T22:26:46;8.70;99.90
10306;DHT22;5198;52.382;9.020;2024-01-30T22:30:49;8.70;99.90
10306;DHT22;5198;52.382;9.020;2024-01-30T22:34:55;8.60;99.90
10306;DHT22;5198;52.382;9.020;2024-01-30T22:39:01;8.60;99.90
10306;DHT22;5198;52.382;9.020;2024-01-30T22:43:06;8.50;99.90
10306;DHT22;5198;52.382;9.020;2024-01-30T22:47:08;8.50;99.90
10306;DHT22;5198;52.382;9.020;2024-01-30T22:51:13;8.50;99.90
10306;DHT22;5198;52.382;9.020;2024-01-30T22:55:16;8.40;99.90
10306;DHT22;5198;52.382;9.020;2024-01-30T22:59:18;8.40;99.90
10306;DHT22;5198;52.382;9.020;2024-01-30T23:03:22;8.40;99.90
10306;DHT22;5198;52.382;9.020;2024-01-30T23:07:27;8.40;99.90
10306;DHT22;5198;52.382;9.020;2024-01-30T23:11:30;8.40;99.90
10306;DHT22;5198;52.382;9.020;2024-01-30T23:15:33;8.30;99.90
10306;DHT22;5198;52.382;9.020;2024-01-30T23:19:36;8.30;99.90
10306;DHT22;5198;52.382;9.020;2024-01-30T23:23:41;8.30;99.90
10306;DHT22;5198;52.382;9.020;2024-01-30T23:27:44;8.30;99.90
10306;DHT22;5198;52.382;9.020;2024-01-30T23:31:47;8.30;99.90
10306;DHT22;5198;52.382;9.020;2024-01-30T23:35:50;8.30;99.90
10306;DHT22;5198;52.382;9.020;2024-01-30T23:39:54;8.30;99.90
